.
Local / CommonContents

Fort Wayne - NE Ind.
U N D E R   C O N S T R U C T I O N

Northern Indiana (IWX) Radar

Latest IWX NEXRAD
Base Reflectivity



Latest IWX NEXRAD
Base Velocity

Indiana-Ohio Visible Satellite

For infrared and water vapor imagery, see Great Lakes - Midwest.

Current Conditions

Recent report from the Fort Wayne International Airport

Jan 19, 2020 - 12:54 PM EST / 2020.01.19 1754 UTC


The skies are overcast. The temperature is 12.0 F (-11.1 C) and the dew point is 3.9 F (-15.6 C), giving a relative humidity of 69%. The barometric pressure is 30.23 in. Hg (1023 hPa) and rising. The wind is from the W (270 degrees) at 18 MPH (16 KT) gusting to 29 MPH (25 KT) creating a wind chill temperature of -5 F (-21 C), and the visibility is 10 mile(s).

KFWA 191754Z 27016G25KT 10SM BKN024 OVC070 M11/M16 A3023 RMK AO2 SNB23E41 SLP251 P0000 60000 T11111156 11111 21139 50011
CoCoRaHS
IN-AL-39
A2 Web Hosting
Creative Commons License
GoDaddy
search engine by freefind advanced

loaded 2020-01-19 13:14:38 • last modified 2015-05-28 14:58:18
Privacy PolicyDisclaimer
• wx.awcolley.com is powered by PmWiki v.2002016 •
• all content (unless otherwise noted) © 2020 A W Colley